Decorra, Illinois
Current Conditions -  °F | °C
As of 10:53 PM on Saturday 22 Nov 2014 (Local Time) from KBRL Reporting Station
Overcast Overcast  
Wind Chill: 52°   Ceiling: 1100
Heat Index: 52°   Visibility: 10mi
Dew Point: 49°   Wind: 14mph
Humidity: 89%   Direction: 190°S
Pressure: 29.77"   Gusts: NA
Location:  40.7638°N, 90.9614°W
Report Text: KBRL 230453Z AUTO 19012KT 10SM OVC011 11/09 A2977 RMK AO2 SLP082 T01110094 $
Loading
Personal Weather Stations






























Interactive Weather Map New forecast layout! Learn more

10-Day Weather Forecast

Advertisements
Track Severe Weather on mobile